createdAt,value
2019-02-07T00:04:31.133Z,28.57
2019-02-07T00:09:34.670Z,42.67
2019-02-07T00:14:39.713Z,25.33
2019-02-07T00:19:43.535Z,48.43
2019-02-07T00:24:47.238Z,48.20
2019-02-07T00:29:50.803Z,52.80
2019-02-07T00:34:54.588Z,34.80
2019-02-07T00:39:58.406Z,45.70
2019-02-07T00:45:02.016Z,35.07
2019-02-07T00:50:07.703Z,44.50
2019-02-07T00:55:13.969Z,49.47
2019-02-07T01:00:29.363Z,42.13
2019-02-07T01:05:33.105Z,48.63
2019-02-07T01:10:37.365Z,32.47
2019-02-07T01:15:41.045Z,38.53
2019-02-07T01:20:45.107Z,49.13
2019-02-07T01:25:49.019Z,37.63
2019-02-07T01:30:52.535Z,33.27
2019-02-07T01:35:56.362Z,31.10
2019-02-07T01:40:59.958Z,30.83
2019-02-07T01:46:03.712Z,32.43
2019-02-07T01:51:07.506Z,43.30
2019-02-07T01:56:11.181Z,35.70
2019-02-07T02:01:14.738Z,25.03
2019-02-07T02:06:18.323Z,22.90
2019-02-07T02:11:21.874Z,38.90
2019-02-07T02:16:25.943Z,37.23
2019-02-07T02:21:29.525Z,28.60
2019-02-07T02:26:33.236Z,39.40
2019-02-07T02:31:36.956Z,46.17
2019-02-07T02:36:40.516Z,47.67
2019-02-07T02:41:44.102Z,27.13
2019-02-07T02:46:47.925Z,37.73
2019-02-07T02:51:51.610Z,48.00
2019-02-07T02:56:55.540Z,42.97
2019-02-07T03:02:00.785Z,16.67
2019-02-07T03:07:05.923Z,38.43
2019-02-07T03:12:14.182Z,46.57
2019-02-07T03:17:19.508Z,44.10
2019-02-07T03:22:33.543Z,28.80
2019-02-07T03:27:39.088Z,24.27
2019-02-07T03:32:44.202Z,36.70
2019-02-07T03:37:52.320Z,43.43
2019-02-07T03:42:57.651Z,37.83
2019-02-07T03:48:06.063Z,21.20
2019-02-07T03:53:27.615Z,20.87
2019-02-07T03:58:49.358Z,30.63
2019-02-07T04:04:03.520Z,43.70
2019-02-07T04:09:22.087Z,45.77
2019-02-07T04:14:45.734Z,45.23
2019-02-07T04:19:54.448Z,45.73
2019-02-07T04:25:05.398Z,49.23
2019-02-07T04:30:11.415Z,31.83
2019-02-07T04:35:33.385Z,38.83
2019-02-07T04:40:48.106Z,52.63
2019-02-07T04:45:57.085Z,50.07
2019-02-07T04:51:18.738Z,50.50
2019-02-07T04:56:26.713Z,53.67
2019-02-07T05:01:38.350Z,49.07
2019-02-07T05:06:49.854Z,54.90
2019-02-07T05:11:55.096Z,52.53
2019-02-07T05:17:17.069Z,35.60
2019-02-07T05:22:26.126Z,49.07
2019-02-07T05:27:41.504Z,47.97
2019-02-07T05:32:52.991Z,46.07
2019-02-07T05:38:01.093Z,52.00
2019-02-07T05:43:21.518Z,46.97
2019-02-07T05:48:36.025Z,48.80
2019-02-07T05:53:41.453Z,53.63
2019-02-07T05:58:49.550Z,53.80
2019-02-07T06:03:55.085Z,57.77
2019-02-07T06:09:12.533Z,51.13
2019-02-07T06:14:20.545Z,56.23
2019-02-07T06:19:34.612Z,52.33
2019-02-07T06:24:48.805Z,46.63
2019-02-07T06:29:54.340Z,43.47
2019-02-07T06:35:11.480Z,37.70
2019-02-07T06:40:17.250Z,44.63
2019-02-07T06:45:22.406Z,44.63
2019-02-07T06:50:43.870Z,41.07
2019-02-07T06:55:51.998Z,39.97
2019-02-07T07:01:00.603Z,29.90
2019-02-07T07:06:14.725Z,37.13
2019-02-07T07:11:39.030Z,41.03
2019-02-07T07:16:44.520Z,45.03
2019-02-07T07:21:59.106Z,42.70
2019-02-07T07:27:07.430Z,43.20
2019-02-07T07:32:28.972Z,26.73
2019-02-07T07:37:50.770Z,27.17
2019-02-07T07:43:12.553Z,35.30
2019-02-07T07:48:26.729Z,36.53
2019-02-07T07:53:47.223Z,21.90
2019-02-07T07:59:08.915Z,34.97
2019-02-07T08:04:17.113Z,39.27
2019-02-07T08:09:22.583Z,29.60
2019-02-07T08:14:39.793Z,37.67
2019-02-07T08:20:01.483Z,23.27
2019-02-07T08:25:24.185Z,26.90
2019-02-07T08:30:36.157Z,27.17
2019-02-07T08:35:36.583Z,22.27
2019-02-07T08:40:45.320Z,22.00
2019-02-07T08:45:50.521Z,17.10
2019-02-07T08:50:56.628Z,21.83
2019-02-07T08:56:04.808Z,27.80
2019-02-07T09:01:13.603Z,19.70
2019-02-07T09:06:23.183Z,21.43
2019-02-07T09:11:28.512Z,25.47
2019-02-07T09:16:43.009Z,29.37
2019-02-07T09:21:53.878Z,26.80
2019-02-07T09:27:01.678Z,25.67
2019-02-07T09:32:12.105Z,24.27
2019-02-07T09:37:28.653Z,25.50
2019-02-07T09:42:46.178Z,22.77
2019-02-07T09:48:02.655Z,22.97
2019-02-07T09:53:07.843Z,26.87
2019-02-07T09:58:29.540Z,22.03
2019-02-07T10:03:34.843Z,25.97
2019-02-07T10:08:49.216Z,25.60
2019-02-07T10:14:00.083Z,21.30
2019-02-07T10:19:13.978Z,21.20
2019-02-07T10:24:19.222Z,20.07
2019-02-07T10:29:30.539Z,24.20
2019-02-07T10:34:39.264Z,21.30
2019-02-07T10:39:50.318Z,22.33
2019-02-07T10:45:01.870Z,19.37
2019-02-07T10:50:09.495Z,24.00
2019-02-07T10:55:23.641Z,16.17
2019-02-07T11:00:43.791Z,22.20
2019-02-07T11:06:07.228Z,16.60
2019-02-07T11:11:30.584Z,20.57
2019-02-07T11:16:35.843Z,31.43
2019-02-07T11:21:49.886Z,18.70
2019-02-07T11:27:11.598Z,21.93
2019-02-07T11:32:19.570Z,20.50
2019-02-07T11:37:25.062Z,23.63
2019-02-07T11:42:30.289Z,20.47
2019-02-07T11:47:52.339Z,19.63
2019-02-07T11:53:12.476Z,14.77
2019-02-07T11:58:17.691Z,15.77
2019-02-07T12:03:22.805Z,16.23
2019-02-07T12:08:36.958Z,12.47
2019-02-07T12:13:54.173Z,21.83
2019-02-07T12:18:59.623Z,20.83
2019-02-07T12:24:04.975Z,15.53
2019-02-07T12:29:10.064Z,20.50
2019-02-07T12:34:15.275Z,16.37
2019-02-07T12:39:38.818Z,20.00
2019-02-07T12:44:49.980Z,18.93
2019-02-07T12:50:03.920Z,18.57
2019-02-07T12:55:16.144Z,19.27
2019-02-07T13:00:35.115Z,18.77
2019-02-07T13:05:40.524Z,12.33
2019-02-07T13:11:02.136Z,17.30
2019-02-07T13:16:07.482Z,15.17
2019-02-07T13:21:18.741Z,16.77
2019-02-07T13:26:23.993Z,11.50
2019-02-07T13:31:29.477Z,17.57
2019-02-07T13:36:42.570Z,17.83
2019-02-07T13:41:47.963Z,20.33
2019-02-07T13:47:02.491Z,11.03
2019-02-07T13:52:09.066Z,11.40
2019-02-07T13:57:23.038Z,15.83
2019-02-07T14:02:44.289Z,10.80
2019-02-07T14:07:52.346Z,14.20
2019-02-07T14:13:13.863Z,15.47
2019-02-07T14:18:34.361Z,14.37
2019-02-07T14:23:48.256Z,13.43
2019-02-07T14:28:53.513Z,12.13
2019-02-07T14:33:58.895Z,10.53
2019-02-07T14:39:08.198Z,7.87
2019-02-07T14:44:13.639Z,13.23
2019-02-07T14:49:20.699Z,16.57
2019-02-07T14:54:24.229Z,9.90
2019-02-07T14:59:28.182Z,11.73
2019-02-07T15:04:31.848Z,13.53
2019-02-07T15:09:35.888Z,12.07
2019-02-07T15:14:39.669Z,9.43
2019-02-07T15:19:44.926Z,11.50
2019-02-07T15:24:48.684Z,10.00
2019-02-07T15:29:52.423Z,17.10
2019-02-07T15:34:56.410Z,22.23
2019-02-07T15:40:00.319Z,13.23
2019-02-07T15:45:06.141Z,22.03
2019-02-07T15:50:21.706Z,22.63
2019-02-07T15:55:25.572Z,17.27
2019-02-07T16:00:46.995Z,12.60
2019-02-07T16:05:51.161Z,14.23
2019-02-07T16:10:54.729Z,14.00
2019-02-07T16:15:58.428Z,13.33
2019-02-07T16:21:02.278Z,24.77
2019-02-07T16:26:06.091Z,11.23
2019-02-07T16:31:10.180Z,12.67
2019-02-07T16:36:14.673Z,16.40
2019-02-07T16:41:18.385Z,17.03
2019-02-07T16:46:22.027Z,18.10
2019-02-07T16:51:25.905Z,12.03
2019-02-07T16:56:31.763Z,12.43
2019-02-07T17:01:39.513Z,16.13
2019-02-07T17:06:43.265Z,24.10
2019-02-07T17:11:50.063Z,17.87
2019-02-07T17:16:54.030Z,13.37
2019-02-07T17:21:57.772Z,17.23
2019-02-07T17:27:02.410Z,13.27
2019-02-07T17:32:06.225Z,16.40
2019-02-07T17:37:09.852Z,18.33
2019-02-07T17:42:13.712Z,14.17
2019-02-07T17:47:17.469Z,13.83
2019-02-07T17:52:21.166Z,13.87
2019-02-07T17:57:24.960Z,16.10
2019-02-07T18:02:28.777Z,21.53
2019-02-07T18:07:32.505Z,10.70
2019-02-07T18:12:36.770Z,25.03
2019-02-07T18:17:41.053Z,28.50
2019-02-07T18:21:17.860Z,21.53
2019-02-07T18:24:41.658Z,18.60
2019-02-07T18:28:05.912Z,15.03
2019-02-07T18:31:30.162Z,29.87
2019-02-07T18:34:53.825Z,28.87
2019-02-07T18:38:17.578Z,19.60
2019-02-07T18:41:41.529Z,27.03
2019-02-07T18:45:08.598Z,26.13
2019-02-07T18:48:32.805Z,26.07
2019-02-07T18:51:56.825Z,21.30
2019-02-07T18:55:20.786Z,14.23
2019-02-07T18:58:44.543Z,29.13
2019-02-07T19:02:08.204Z,30.97
2019-02-07T19:05:31.905Z,24.93
2019-02-07T19:08:55.387Z,32.80
2019-02-07T19:12:19.135Z,27.33
2019-02-07T19:15:52.828Z,28.90
2019-02-07T19:19:19.047Z,28.70
2019-02-07T19:22:42.854Z,30.47
2019-02-07T19:26:06.458Z,28.10
2019-02-07T19:29:32.015Z,28.93
2019-02-07T19:32:56.176Z,32.50
2019-02-07T19:36:57.382Z,21.67
2019-02-07T19:40:00.768Z,28.27
2019-02-07T19:43:27.189Z,30.60
2019-02-07T19:46:51.171Z,27.40
2019-02-07T19:50:27.137Z,24.23
2019-02-07T19:54:15.771Z,28.57
2019-02-07T19:57:39.154Z,28.67
2019-02-07T20:01:02.784Z,26.30
2019-02-07T20:04:26.802Z,24.63
2019-02-07T20:07:50.863Z,34.17
2019-02-07T20:11:14.683Z,33.97
2019-02-07T20:14:38.362Z,31.97
2019-02-07T20:18:05.887Z,38.03
2019-02-07T20:21:32.503Z,39.57
2019-02-07T20:25:00.167Z,41.60
2019-02-07T20:28:26.562Z,37.00
2019-02-07T20:31:51.151Z,44.87
2019-02-07T20:35:19.449Z,39.17
2019-02-07T20:38:43.951Z,40.53
2019-02-07T20:42:08.195Z,38.07
2019-02-07T20:45:32.009Z,40.37
2019-02-07T20:48:56.758Z,38.87
2019-02-07T20:52:22.745Z,42.67
2019-02-07T20:55:47.035Z,41.73
2019-02-07T20:59:13.594Z,42.53
2019-02-07T21:02:41.520Z,42.53
2019-02-07T21:06:05.323Z,44.93
2019-02-07T21:09:29.075Z,44.63
2019-02-07T21:12:53.173Z,45.73
2019-02-07T21:16:17.486Z,45.43
2019-02-07T21:19:41.548Z,56.30
2019-02-07T21:23:05.561Z,54.17
2019-02-07T21:26:29.390Z,45.00
2019-02-07T21:29:53.114Z,46.50
2019-02-07T21:33:22.243Z,42.27
2019-02-07T21:36:46.255Z,47.60
2019-02-07T21:40:12.721Z,46.43
2019-02-07T21:43:36.778Z,56.70
2019-02-07T21:47:04.049Z,57.93
2019-02-07T21:50:32.843Z,47.07
2019-02-07T21:53:56.878Z,47.87
2019-02-07T21:57:23.404Z,44.37
2019-02-07T22:00:47.432Z,37.37
2019-02-07T22:04:11.119Z,46.33
2019-02-07T22:07:34.831Z,43.93
2019-02-07T22:10:58.600Z,37.17
2019-02-07T22:14:22.985Z,44.07
2019-02-07T22:17:48.421Z,42.53
2019-02-07T22:21:12.865Z,44.10
2019-02-07T22:24:37.687Z,40.23
2019-02-07T22:28:02.594Z,39.17
2019-02-07T22:31:26.476Z,40.10
2019-02-07T22:34:50.591Z,37.50
2019-02-07T22:38:14.790Z,47.43
2019-02-07T22:41:39.486Z,44.63
2019-02-07T22:45:03.266Z,37.30
2019-02-07T22:48:27.000Z,44.43
2019-02-07T22:51:51.130Z,43.93
2019-02-07T22:55:15.100Z,44.90
2019-02-07T22:58:38.941Z,43.77
2019-02-07T23:02:02.963Z,42.33
2019-02-07T23:05:26.907Z,43.97
2019-02-07T23:08:50.981Z,41.87
2019-02-07T23:12:14.808Z,42.00
2019-02-07T23:15:38.680Z,42.13
2019-02-07T23:19:02.364Z,43.63
2019-02-07T23:22:26.211Z,41.87
2019-02-07T23:25:49.844Z,44.57
2019-02-07T23:29:13.495Z,42.07
2019-02-07T23:32:37.163Z,42.33
2019-02-07T23:36:00.861Z,41.90
2019-02-07T23:39:24.378Z,41.20
2019-02-07T23:42:48.312Z,41.73
2019-02-07T23:46:12.289Z,50.73
2019-02-07T23:49:36.780Z,42.00
2019-02-07T23:53:00.739Z,44.27
2019-02-07T23:56:24.465Z,42.27
2019-02-07T23:59:48.558Z,28.90
